Daytona Beach, Florida
Current Conditions -  °F | °C
As of 2:53 PM on Saturday 20 Dec 2014 (Local Time) from KDAB Reporting Station
Broken Clouds Broken Clouds  
Wind Chill: 22°   Ceiling: 14000
Heat Index: 22°   Visibility: 10mi
Dew Point: 16°   Wind: 8mph
Humidity: 66%   Direction: 70°ENE
Pressure: 30.06"   Gusts: NA
Location:  29.2°N, 81.04°W
Report Text: KDAB 201953Z 07007KT 10SM FEW039 FEW100 BKN140 BKN250 22/16 A3006 RMK AO2 SLP177 T02220156
Loading
Personal Weather Stations






























Interactive Weather Map New forecast layout! Learn more

10-Day Weather Forecast

Advertisements
Track Severe Weather on mobile